createdAt,value
2018-01-11T00:01:15.884Z,2.44
2018-01-11T00:03:43.360Z,2.41
2018-01-11T00:06:10.861Z,2.40
2018-01-11T00:08:38.328Z,2.40
2018-01-11T00:11:05.824Z,2.38
2018-01-11T00:13:33.310Z,2.39
2018-01-11T00:16:00.790Z,2.37
2018-01-11T00:18:28.254Z,2.34
2018-01-11T00:20:55.752Z,2.34
2018-01-11T00:23:23.225Z,2.33
2018-01-11T00:25:50.691Z,2.34
2018-01-11T00:28:18.182Z,2.36
2018-01-11T00:30:45.654Z,2.31
2018-01-11T00:33:13.134Z,2.38
2018-01-11T00:35:40.626Z,2.42
2018-01-11T00:38:08.106Z,2.44
2018-01-11T00:40:35.586Z,2.48
2018-01-11T00:43:03.082Z,2.49
2018-01-11T00:45:30.546Z,2.41
2018-01-11T00:47:58.020Z,2.40
2018-01-11T00:50:25.522Z,2.34
2018-01-11T00:52:52.989Z,2.34
2018-01-11T00:55:20.454Z,2.31
2018-01-11T00:57:47.934Z,2.25
2018-01-11T01:00:15.395Z,2.20
2018-01-11T01:02:42.915Z,2.21
2018-01-11T01:05:10.460Z,2.22
2018-01-11T01:07:37.930Z,2.23
2018-01-11T01:10:05.425Z,2.24
2018-01-11T01:12:32.891Z,2.20
2018-01-11T01:15:00.354Z,2.23
2018-01-11T01:17:27.863Z,2.24
2018-01-11T01:19:55.334Z,2.25
2018-01-11T01:22:22.798Z,2.29
2018-01-11T01:24:50.352Z,2.35
2018-01-11T01:27:17.790Z,2.39
2018-01-11T01:29:45.258Z,2.48
2018-01-11T01:32:12.764Z,2.48
2018-01-11T01:34:40.243Z,2.47
2018-01-11T01:37:07.770Z,2.47
2018-01-11T01:39:35.269Z,2.48
2018-01-11T01:42:02.744Z,2.50
2018-01-11T01:44:30.235Z,2.53
2018-01-11T01:46:57.778Z,2.59
2018-01-11T01:49:25.267Z,2.64
2018-01-11T01:51:52.766Z,2.64
2018-01-11T01:54:20.294Z,2.55
2018-01-11T01:56:47.852Z,2.45
2018-01-11T01:59:15.335Z,2.45
2018-01-11T02:01:42.885Z,2.46
2018-01-11T02:04:10.373Z,2.49
2018-01-11T02:06:37.865Z,2.55
2018-01-11T02:09:05.373Z,2.58
2018-01-11T02:11:32.869Z,2.62
2018-01-11T02:14:00.382Z,2.60
2018-01-11T02:16:27.858Z,2.63
2018-01-11T02:18:55.347Z,2.65
2018-01-11T02:21:22.878Z,2.66
2018-01-11T02:23:50.350Z,2.63
2018-01-11T02:26:17.869Z,2.60
2018-01-11T02:28:45.390Z,2.58
2018-01-11T02:31:12.872Z,2.60
2018-01-11T02:33:40.351Z,2.64
2018-01-11T02:36:07.854Z,2.61
2018-01-11T02:38:35.326Z,2.60
2018-01-11T02:41:02.909Z,2.57
2018-01-11T02:43:30.428Z,2.56
2018-01-11T02:45:57.921Z,2.54
2018-01-11T02:48:25.446Z,2.48
2018-01-11T02:50:52.954Z,2.45
2018-01-11T02:53:20.461Z,2.39
2018-01-11T02:55:47.955Z,2.33
2018-01-11T02:58:15.528Z,2.37
2018-01-11T03:00:42.994Z,2.38
2018-01-11T03:03:10.500Z,2.41
2018-01-11T03:05:38.004Z,2.42
2018-01-11T03:08:05.493Z,2.39
2018-01-11T03:10:33.010Z,2.38
2018-01-11T03:13:00.496Z,2.42
2018-01-11T03:15:28.016Z,2.41
2018-01-11T03:17:55.508Z,2.41
2018-01-11T03:20:22.994Z,2.35
2018-01-11T03:22:50.487Z,2.38
2018-01-11T03:25:17.950Z,2.39
2018-01-11T03:27:45.430Z,2.38
2018-01-11T03:30:12.943Z,2.40
2018-01-11T03:32:40.446Z,2.47
2018-01-11T03:35:07.910Z,2.45
2018-01-11T03:37:35.563Z,2.48
2018-01-11T03:40:03.050Z,2.48
2018-01-11T03:42:30.522Z,2.50
2018-01-11T03:44:58.027Z,2.50
2018-01-11T03:47:25.511Z,2.50
2018-01-11T03:49:53.001Z,2.56
2018-01-11T03:52:20.483Z,2.60
2018-01-11T03:54:47.958Z,2.61
2018-01-11T03:57:15.446Z,2.65
2018-01-11T03:59:42.906Z,2.70
2018-01-11T04:02:10.381Z,2.69
2018-01-11T04:04:37.909Z,2.69
2018-01-11T04:07:05.396Z,2.71
2018-01-11T04:09:32.906Z,2.72
2018-01-11T04:12:00.389Z,2.75
2018-01-11T04:14:27.895Z,2.78
2018-01-11T04:16:55.367Z,2.78
2018-01-11T04:19:22.890Z,2.76
2018-01-11T04:21:50.363Z,2.77
2018-01-11T04:24:17.825Z,2.79
2018-01-11T04:26:45.326Z,2.75
2018-01-11T04:29:12.818Z,2.72
2018-01-11T04:31:40.318Z,2.72
2018-01-11T04:34:07.802Z,2.70
2018-01-11T04:36:35.290Z,2.66
2018-01-11T04:39:02.766Z,2.74
2018-01-11T04:41:30.259Z,2.81
2018-01-11T04:43:57.750Z,2.86
2018-01-11T04:46:25.222Z,2.89
2018-01-11T04:48:52.727Z,2.91
2018-01-11T04:51:20.194Z,2.89
2018-01-11T04:53:47.658Z,2.86
2018-01-11T04:56:15.143Z,2.80
2018-01-11T04:58:42.630Z,2.77
2018-01-11T05:01:10.141Z,2.83
2018-01-11T05:03:37.627Z,2.82
2018-01-11T05:06:05.090Z,2.73
2018-01-11T05:08:32.665Z,2.62
2018-01-11T05:11:00.171Z,2.52
2018-01-11T05:13:27.658Z,2.46
2018-01-11T05:15:55.142Z,2.41
2018-01-11T05:18:22.699Z,2.42
2018-01-11T05:20:50.213Z,2.34
2018-01-11T05:23:17.706Z,2.30
2018-01-11T05:25:45.217Z,2.27
2018-01-11T05:28:12.704Z,2.27
2018-01-11T05:30:40.199Z,2.26
2018-01-11T05:33:07.698Z,2.24
2018-01-11T05:35:35.192Z,2.25
2018-01-11T05:38:02.694Z,2.21
2018-01-11T05:40:30.201Z,2.19
2018-01-11T05:42:57.694Z,2.20
2018-01-11T05:47:59.143Z,2.22
2018-01-11T05:50:26.658Z,2.22
2018-01-11T05:52:54.168Z,2.25
2018-01-11T05:55:21.699Z,2.25
2018-01-11T05:57:50.895Z,2.29
2018-01-11T06:00:18.367Z,2.28
2018-01-11T06:02:45.826Z,2.31
2018-01-11T06:05:13.329Z,2.32
2018-01-11T06:07:40.793Z,2.33
2018-01-11T06:10:08.282Z,2.32
2018-01-11T06:12:35.776Z,2.33
2018-01-11T06:15:03.307Z,2.42
2018-01-11T06:17:30.797Z,2.63
2018-01-11T06:19:58.333Z,2.58
2018-01-11T06:22:25.814Z,2.60
2018-01-11T06:24:53.341Z,2.62
2018-01-11T06:27:20.831Z,2.68
2018-01-11T06:29:48.370Z,2.73
2018-01-11T06:32:15.906Z,2.77
2018-01-11T06:34:43.374Z,2.74
2018-01-11T06:37:10.863Z,2.74
2018-01-11T06:39:38.371Z,2.75
2018-01-11T06:42:05.996Z,2.72
2018-01-11T06:44:33.491Z,2.73
2018-01-11T06:47:01.059Z,2.78
2018-01-11T06:49:28.573Z,2.82
2018-01-11T06:51:56.042Z,2.83
2018-01-11T06:54:23.545Z,2.83
2018-01-11T06:56:51.078Z,2.81
2018-01-11T06:59:18.582Z,2.81
2018-01-11T07:01:46.094Z,2.81
2018-01-11T07:04:13.577Z,2.82
2018-01-11T07:06:41.046Z,2.86
2018-01-11T07:09:08.530Z,2.89
2018-01-11T07:11:36.018Z,2.92
2018-01-11T07:14:03.530Z,2.97
2018-01-11T07:16:31.005Z,3.01
2018-01-11T07:18:58.848Z,3.03
2018-01-11T07:21:26.343Z,3.04
2018-01-11T07:23:53.822Z,3.03
2018-01-11T07:26:21.296Z,3.04
2018-01-11T07:28:48.782Z,3.06
2018-01-11T07:31:16.342Z,3.08
2018-01-11T07:33:43.844Z,3.07
2018-01-11T07:36:11.357Z,3.11
2018-01-11T07:38:38.830Z,3.12
2018-01-11T07:41:06.362Z,3.16
2018-01-11T07:43:33.826Z,3.20
2018-01-11T07:46:01.324Z,3.23
2018-01-11T07:48:28.810Z,3.27
2018-01-11T07:50:56.305Z,3.31
2018-01-11T07:53:23.796Z,3.32
2018-01-11T07:55:51.290Z,3.33
2018-01-11T07:58:18.769Z,3.34
2018-01-11T08:00:46.257Z,3.36
2018-01-11T08:03:14.691Z,3.39
2018-01-11T08:05:42.169Z,3.41
2018-01-11T08:08:09.631Z,3.43
2018-01-11T08:10:37.138Z,3.43
2018-01-11T08:13:04.626Z,3.47
2018-01-11T08:15:32.444Z,3.50
2018-01-11T08:17:59.933Z,3.54
2018-01-11T08:20:27.430Z,3.59
2018-01-11T08:22:54.915Z,3.55
2018-01-11T08:25:22.398Z,3.50
2018-01-11T08:27:49.890Z,3.50
2018-01-11T08:30:17.350Z,3.52
2018-01-11T08:32:44.862Z,3.52
2018-01-11T08:35:12.345Z,3.51
2018-01-11T08:37:39.803Z,3.58
2018-01-11T08:40:07.332Z,3.61
2018-01-11T08:42:34.810Z,3.63
2018-01-11T08:45:02.266Z,3.63
2018-01-11T08:47:29.768Z,3.65
2018-01-11T08:49:57.251Z,3.65
2018-01-11T08:52:24.730Z,3.69
2018-01-11T08:54:52.198Z,3.70
2018-01-11T08:57:19.690Z,3.69
2018-01-11T08:59:47.206Z,3.66
2018-01-11T09:02:14.701Z,3.66
2018-01-11T09:04:42.198Z,3.73
2018-01-11T09:07:09.736Z,3.76
2018-01-11T09:09:37.200Z,3.76
2018-01-11T09:12:04.664Z,3.76
2018-01-11T09:14:32.172Z,3.77
2018-01-11T09:16:59.737Z,3.77
2018-01-11T09:19:27.202Z,3.75
2018-01-11T09:21:54.691Z,3.75
2018-01-11T09:24:22.235Z,3.74
2018-01-11T09:26:49.725Z,3.71
2018-01-11T09:29:17.218Z,3.70
2018-01-11T09:31:44.798Z,3.66
2018-01-11T09:34:12.258Z,3.64
2018-01-11T09:36:39.724Z,3.58
2018-01-11T09:39:07.220Z,3.56
2018-01-11T09:41:34.707Z,3.55
2018-01-11T09:44:02.174Z,3.55
2018-01-11T09:46:29.642Z,3.53
2018-01-11T09:48:57.165Z,3.49
2018-01-11T09:51:24.660Z,3.45
2018-01-11T09:53:52.175Z,3.47
2018-01-11T09:56:19.658Z,3.43
2018-01-11T09:58:47.158Z,3.44
2018-01-11T10:01:14.635Z,3.44
2018-01-11T10:03:42.125Z,3.44
2018-01-11T10:06:09.627Z,3.34
2018-01-11T10:08:37.093Z,3.34
2018-01-11T10:11:04.563Z,3.38
2018-01-11T10:13:32.078Z,3.40
2018-01-11T10:15:59.590Z,3.39
2018-01-11T10:18:27.075Z,3.39
2018-01-11T10:20:54.606Z,3.27
2018-01-11T10:23:22.151Z,3.27
2018-01-11T10:25:49.656Z,3.29
2018-01-11T10:28:17.155Z,3.36
2018-01-11T10:30:44.642Z,3.38
2018-01-11T10:33:12.178Z,3.40
2018-01-11T10:35:39.678Z,3.33
2018-01-11T10:38:07.173Z,3.35
2018-01-11T10:40:34.698Z,3.33
2018-01-11T10:43:02.162Z,3.34
2018-01-11T10:45:29.626Z,3.33
2018-01-11T10:47:57.138Z,3.30
2018-01-11T10:50:24.626Z,3.29
2018-01-11T10:52:52.096Z,3.27
2018-01-11T10:55:19.594Z,3.23
2018-01-11T10:57:47.142Z,3.27
2018-01-11T11:00:14.626Z,3.28
2018-01-11T11:02:47.872Z,3.28
2018-01-11T11:05:15.334Z,3.27
2018-01-11T11:07:42.842Z,3.32
2018-01-11T11:10:10.550Z,3.26
2018-01-11T11:12:38.037Z,3.21
2018-01-11T11:15:05.503Z,3.15
2018-01-11T11:17:33.030Z,3.18
2018-01-11T11:20:00.559Z,3.19
2018-01-11T11:22:28.048Z,3.22
2018-01-11T11:24:55.551Z,3.29
2018-01-11T11:27:23.030Z,3.35
2018-01-11T11:29:50.515Z,3.38
2018-01-11T11:32:18.034Z,3.36
2018-01-11T11:34:45.516Z,3.36
2018-01-11T11:37:12.983Z,3.41
2018-01-11T11:39:40.472Z,3.42
2018-01-11T11:42:07.957Z,3.44
2018-01-11T11:44:35.426Z,3.45
2018-01-11T11:47:02.915Z,3.39
2018-01-11T11:49:30.454Z,3.37
2018-01-11T11:51:57.930Z,3.41
2018-01-11T11:54:25.436Z,3.48
2018-01-11T11:56:52.908Z,3.48
2018-01-11T11:59:20.436Z,3.50
2018-01-11T12:01:47.934Z,3.47
2018-01-11T12:04:15.398Z,3.41
2018-01-11T12:06:42.899Z,3.48
2018-01-11T12:09:10.390Z,3.51
2018-01-11T12:11:37.913Z,3.44
2018-01-11T12:14:05.403Z,3.51
2018-01-11T12:16:32.941Z,3.54
2018-01-11T12:19:00.403Z,3.55
2018-01-11T12:21:27.891Z,3.58
2018-01-11T12:23:55.371Z,3.55
2018-01-11T12:26:22.870Z,3.59
2018-01-11T12:28:50.446Z,3.59
2018-01-11T12:31:17.911Z,3.68
2018-01-11T12:33:45.406Z,3.66
2018-01-11T12:36:12.899Z,3.63
2018-01-11T12:38:40.386Z,3.68
2018-01-11T12:41:07.875Z,3.66
2018-01-11T12:43:35.383Z,3.73
2018-01-11T12:46:02.866Z,3.77
2018-01-11T12:48:30.346Z,3.89
2018-01-11T12:50:57.845Z,3.87
2018-01-11T12:53:25.346Z,3.85
2018-01-11T12:55:52.842Z,3.77
2018-01-11T12:58:20.335Z,3.71
2018-01-11T13:00:47.842Z,3.62
2018-01-11T13:03:15.310Z,3.69
2018-01-11T13:05:42.851Z,3.76
2018-01-11T13:08:10.322Z,3.82
2018-01-11T13:10:37.796Z,3.83
2018-01-11T13:13:05.286Z,3.86
2018-01-11T13:15:32.795Z,3.81
2018-01-11T13:18:00.265Z,3.75
2018-01-11T13:20:27.790Z,3.73
2018-01-11T13:22:55.279Z,3.75
2018-01-11T13:25:22.769Z,3.71
2018-01-11T13:27:50.461Z,3.70
2018-01-11T13:30:17.931Z,3.71
2018-01-11T13:32:45.468Z,3.74
2018-01-11T13:35:12.963Z,3.76
2018-01-11T13:37:40.466Z,3.69
2018-01-11T13:40:07.939Z,3.66
2018-01-11T13:42:35.415Z,3.70
2018-01-11T13:45:02.879Z,3.65
2018-01-11T13:47:30.363Z,3.69
2018-01-11T13:49:57.882Z,3.70
2018-01-11T13:52:25.387Z,3.72
2018-01-11T13:54:52.875Z,3.74
2018-01-11T13:57:20.383Z,3.76
2018-01-11T13:59:47.852Z,3.80
2018-01-11T14:02:15.372Z,3.82
2018-01-11T14:04:42.862Z,3.87
2018-01-11T14:07:10.322Z,3.81
2018-01-11T14:09:37.839Z,3.80
2018-01-11T14:12:05.318Z,3.84
2018-01-11T14:14:32.833Z,3.90
2018-01-11T14:17:00.314Z,3.93
2018-01-11T14:19:27.835Z,3.94
2018-01-11T14:21:55.344Z,3.95
2018-01-11T14:24:22.871Z,3.98
2018-01-11T14:26:50.341Z,3.97
2018-01-11T14:29:17.813Z,3.94
2018-01-11T14:31:45.317Z,3.90
2018-01-11T14:34:12.804Z,3.86
2018-01-11T14:36:40.275Z,3.82
2018-01-11T14:39:07.898Z,3.81
2018-01-11T14:41:35.382Z,3.78
2018-01-11T14:44:02.875Z,3.72
2018-01-11T14:46:30.364Z,3.73
2018-01-11T14:48:57.871Z,3.72
2018-01-11T14:51:25.364Z,3.68
2018-01-11T14:53:52.926Z,3.69
2018-01-11T14:56:20.418Z,3.71
2018-01-11T14:58:47.921Z,3.75
2018-01-11T15:01:15.406Z,3.78
2018-01-11T15:03:42.922Z,3.81
2018-01-11T15:06:10.715Z,3.79
2018-01-11T15:08:38.198Z,3.79
2018-01-11T15:11:05.698Z,3.78
2018-01-11T15:13:33.186Z,3.78
2018-01-11T15:16:00.656Z,3.79
2018-01-11T15:18:28.154Z,3.81
2018-01-11T15:20:55.620Z,3.84
2018-01-11T15:23:23.122Z,3.81
2018-01-11T15:25:50.624Z,3.76
2018-01-11T15:28:18.086Z,3.59
2018-01-11T15:30:45.597Z,3.49
2018-01-11T15:33:13.085Z,3.44
2018-01-11T15:35:40.566Z,3.45
2018-01-11T15:38:08.063Z,3.56
2018-01-11T15:40:35.551Z,3.63
2018-01-11T15:43:03.104Z,3.66
2018-01-11T15:45:30.572Z,3.68
2018-01-11T15:47:58.415Z,3.73
2018-01-11T15:50:25.896Z,3.76
2018-01-11T15:52:53.402Z,3.78
2018-01-11T15:55:20.929Z,3.73
2018-01-11T15:57:48.414Z,3.67
2018-01-11T16:00:15.879Z,3.65
2018-01-11T16:02:43.405Z,3.56
2018-01-11T16:05:10.867Z,3.54
2018-01-11T16:07:38.351Z,3.56
2018-01-11T16:10:05.907Z,3.58
2018-01-11T16:12:33.402Z,3.60
2018-01-11T16:15:01.274Z,3.51
2018-01-11T16:17:28.791Z,3.47
2018-01-11T16:19:56.278Z,3.38
2018-01-11T16:22:23.768Z,3.41
2018-01-11T16:24:51.389Z,3.45
2018-01-11T16:27:18.880Z,3.42
2018-01-11T16:29:46.343Z,3.30
2018-01-11T16:32:13.874Z,3.27
2018-01-11T16:34:41.364Z,3.18
2018-01-11T16:37:08.874Z,3.17
2018-01-11T16:39:36.383Z,3.17
2018-01-11T16:42:03.958Z,3.10
2018-01-11T16:44:31.471Z,2.95
2018-01-11T16:46:58.991Z,2.93
2018-01-11T16:49:26.543Z,2.97
2018-01-11T16:51:54.007Z,3.00
2018-01-11T16:54:21.521Z,2.98
2018-01-11T16:56:48.994Z,2.95
2018-01-11T16:59:16.475Z,2.92
2018-01-11T17:01:43.979Z,2.87
2018-01-11T17:04:11.452Z,2.89
2018-01-11T17:06:38.911Z,2.92
2018-01-11T17:09:06.432Z,2.92
2018-01-11T17:11:33.966Z,2.98
2018-01-11T17:14:01.451Z,2.97
2018-01-11T17:16:28.957Z,2.96
2018-01-11T17:18:56.438Z,2.98
2018-01-11T17:21:24.542Z,2.96
2018-01-11T17:23:52.051Z,2.85
2018-01-11T17:26:19.532Z,2.86
2018-01-11T17:28:47.028Z,2.84
2018-01-11T17:31:14.564Z,2.75
2018-01-11T17:33:42.070Z,2.76
2018-01-11T17:36:09.561Z,2.75
2018-01-11T17:38:37.122Z,2.72
2018-01-11T17:41:04.711Z,2.77
2018-01-11T17:43:32.204Z,2.73
2018-01-11T17:45:59.822Z,2.73
2018-01-11T17:48:27.312Z,2.76
2018-01-11T17:50:54.787Z,2.73
2018-01-11T17:53:22.281Z,2.74
2018-01-11T17:55:49.767Z,2.81
2018-01-11T17:58:17.238Z,2.84
2018-01-11T18:00:44.742Z,2.80
2018-01-11T18:03:12.285Z,2.79
2018-01-11T18:05:39.753Z,2.80
2018-01-11T18:08:07.248Z,2.81
2018-01-11T18:10:34.799Z,2.77
2018-01-11T18:13:02.285Z,2.69
2018-01-11T18:15:29.804Z,2.71
2018-01-11T18:17:57.280Z,2.74
2018-01-11T18:20:24.768Z,2.78
2018-01-11T18:22:52.275Z,2.83
2018-01-11T18:25:19.756Z,2.83
2018-01-11T18:27:47.234Z,2.88
2018-01-11T18:30:14.727Z,2.69
2018-01-11T18:32:42.236Z,2.65
2018-01-11T18:35:09.714Z,2.67
2018-01-11T18:37:37.208Z,2.65
2018-01-11T18:40:04.682Z,2.68
2018-01-11T18:42:32.194Z,2.66
2018-01-11T18:44:59.689Z,2.70
2018-01-11T18:47:27.149Z,2.72
2018-01-11T18:49:54.656Z,2.71
2018-01-11T18:52:22.191Z,2.75
2018-01-11T18:54:49.841Z,2.69
2018-01-11T18:57:17.318Z,2.63
2018-01-11T18:59:44.806Z,2.63
2018-01-11T19:02:12.326Z,2.63
2018-01-11T19:04:39.824Z,2.64
2018-01-11T19:07:07.299Z,2.72
2018-01-11T19:09:34.824Z,2.72
2018-01-11T19:12:02.369Z,2.81
2018-01-11T19:14:29.866Z,2.89
2018-01-11T19:16:57.409Z,2.92
2018-01-11T19:19:24.889Z,2.89
2018-01-11T19:21:52.435Z,2.88
2018-01-11T19:24:19.932Z,2.71
2018-01-11T19:26:47.441Z,2.76
2018-01-11T19:29:14.911Z,2.75
2018-01-11T19:31:42.418Z,2.71
2018-01-11T19:34:09.901Z,2.70
2018-01-11T19:36:37.434Z,2.72
2018-01-11T19:39:04.903Z,2.82
2018-01-11T19:41:32.387Z,2.87
2018-01-11T19:43:59.910Z,2.81
2018-01-11T19:46:27.433Z,2.77
2018-01-11T19:48:54.954Z,2.79
2018-01-11T19:51:22.501Z,2.83
2018-01-11T19:53:49.979Z,2.82
2018-01-11T19:56:17.483Z,2.76
2018-01-11T19:58:44.994Z,2.77
2018-01-11T20:01:12.467Z,2.76
2018-01-11T20:03:39.931Z,2.72
2018-01-11T20:06:07.423Z,2.68
2018-01-11T20:08:34.915Z,2.63
2018-01-11T20:11:02.415Z,2.61
2018-01-11T20:13:29.910Z,2.58
2018-01-11T20:15:57.422Z,2.54
2018-01-11T20:18:24.963Z,2.50
2018-01-11T20:20:52.471Z,2.51
2018-01-11T20:23:19.980Z,2.61
2018-01-11T20:25:48.305Z,2.69
2018-01-11T20:28:15.820Z,2.70
2018-01-11T20:30:44.273Z,2.61
2018-01-11T20:33:11.750Z,2.49
2018-01-11T20:35:39.281Z,2.53
2018-01-11T20:38:06.761Z,2.52
2018-01-11T20:40:34.259Z,2.59
2018-01-11T20:43:01.766Z,2.63
2018-01-11T20:45:29.269Z,2.66
2018-01-11T20:47:57.480Z,2.70
2018-01-11T20:50:24.992Z,2.69
2018-01-11T20:52:52.484Z,2.69
2018-01-11T20:55:19.980Z,2.58
2018-01-11T20:57:47.464Z,2.64
2018-01-11T21:00:14.983Z,2.70
2018-01-11T21:02:42.460Z,2.76
2018-01-11T21:05:09.962Z,2.77
2018-01-11T21:07:37.496Z,2.79
2018-01-11T21:10:05.000Z,2.82
2018-01-11T21:12:32.471Z,2.83
2018-01-11T21:14:59.974Z,2.73
2018-01-11T21:17:27.573Z,2.71
2018-01-11T21:19:55.064Z,2.60
2018-01-11T21:22:22.562Z,2.46
2018-01-11T21:24:50.074Z,2.50
2018-01-11T21:27:17.574Z,2.53
2018-01-11T21:29:45.119Z,2.53
2018-01-11T21:32:12.609Z,2.44
2018-01-11T21:34:40.109Z,2.42
2018-01-11T21:37:07.605Z,2.42
2018-01-11T21:39:35.112Z,2.45
2018-01-11T21:42:02.621Z,2.43
2018-01-11T21:44:30.206Z,2.47
2018-01-11T21:46:57.701Z,2.54
2018-01-11T21:49:25.204Z,2.58
2018-01-11T21:51:52.731Z,2.55
2018-01-11T21:54:20.210Z,2.59
2018-01-11T21:56:47.687Z,2.67
2018-01-11T21:59:15.186Z,2.65
2018-01-11T22:01:42.738Z,2.65
2018-01-11T22:04:10.246Z,2.70
2018-01-11T22:06:37.763Z,2.72
2018-01-11T22:09:05.311Z,2.75
2018-01-11T22:11:32.782Z,2.77
2018-01-11T22:14:00.280Z,2.73
2018-01-11T22:16:27.774Z,2.71
2018-01-11T22:18:55.605Z,2.62
2018-01-11T22:21:23.111Z,2.62
2018-01-11T22:23:50.612Z,2.65
2018-01-11T22:26:18.120Z,2.70
2018-01-11T22:28:45.590Z,2.75
2018-01-11T22:31:13.058Z,2.70
2018-01-11T22:33:40.583Z,2.67
2018-01-11T22:36:08.088Z,2.66
2018-01-11T22:38:35.606Z,2.71
2018-01-11T22:41:03.093Z,2.78
2018-01-11T22:43:30.579Z,2.82
2018-01-11T22:45:58.075Z,2.83
2018-01-11T22:48:25.685Z,2.73
2018-01-11T22:50:53.186Z,2.66
2018-01-11T22:53:20.720Z,2.59
2018-01-11T22:55:48.204Z,2.53
2018-01-11T22:58:15.713Z,2.54
2018-01-11T23:00:43.339Z,2.47
2018-01-11T23:03:10.818Z,2.46
2018-01-11T23:05:38.278Z,2.44
2018-01-11T23:08:05.784Z,2.40
2018-01-11T23:10:33.339Z,2.43
2018-01-11T23:13:00.889Z,2.51
2018-01-11T23:15:28.397Z,2.53
2018-01-11T23:17:55.905Z,2.46
2018-01-11T23:20:23.379Z,2.45
2018-01-11T23:22:50.934Z,2.43
2018-01-11T23:25:18.425Z,2.46
2018-01-11T23:27:45.962Z,2.52
2018-01-11T23:30:13.549Z,2.53
2018-01-11T23:32:41.058Z,2.57
2018-01-11T23:35:08.610Z,2.62
2018-01-11T23:37:36.129Z,2.67
2018-01-11T23:40:03.607Z,2.68
2018-01-11T23:42:31.085Z,2.72
2018-01-11T23:44:58.609Z,2.76
2018-01-11T23:47:26.092Z,2.75
2018-01-11T23:49:53.579Z,2.75
2018-01-11T23:52:21.103Z,2.59
2018-01-11T23:54:48.584Z,2.57
2018-01-11T23:57:16.065Z,2.45
2018-01-11T23:59:43.601Z,2.32
